createdAt,value
2018-07-12T00:00:05.960Z,0
2018-07-12T00:00:46.390Z,0
2018-07-12T00:01:26.946Z,0
2018-07-12T00:02:07.218Z,0
2018-07-12T00:02:47.656Z,0
2018-07-12T00:03:28.036Z,0
2018-07-12T00:04:08.543Z,0
2018-07-12T00:04:48.889Z,0
2018-07-12T00:05:29.267Z,0
2018-07-12T00:06:10.768Z,0
2018-07-12T00:06:50.896Z,0
2018-07-12T00:07:31.304Z,0
2018-07-12T00:08:11.929Z,0
2018-07-12T00:08:52.260Z,0
2018-07-12T00:09:32.652Z,0
2018-07-12T00:10:13.138Z,0
2018-07-12T00:10:53.494Z,0
2018-07-12T00:11:33.968Z,0
2018-07-12T00:12:14.398Z,0
2018-07-12T00:12:54.801Z,0
2018-07-12T00:13:35.141Z,0
2018-07-12T00:14:15.562Z,0
2018-07-12T00:14:55.935Z,0
2018-07-12T00:15:36.314Z,0
2018-07-12T00:16:16.747Z,0
2018-07-12T00:16:57.177Z,0
2018-07-12T00:17:37.635Z,0
2018-07-12T00:18:18.327Z,0
2018-07-12T00:18:59.175Z,0
2018-07-12T00:19:39.113Z,0
2018-07-12T00:20:19.584Z,0
2018-07-12T00:21:00.005Z,0
2018-07-12T00:21:40.394Z,0
2018-07-12T00:22:20.841Z,0
2018-07-12T00:23:01.264Z,0
2018-07-12T00:23:41.601Z,0
2018-07-12T00:24:22.143Z,0
2018-07-12T00:25:02.468Z,0
2018-07-12T00:25:43.122Z,0
2018-07-12T00:26:23.529Z,0
2018-07-12T00:27:03.920Z,0
2018-07-12T00:27:44.414Z,0
2018-07-12T00:28:24.859Z,0
2018-07-12T00:29:07.781Z,0
2018-07-12T00:29:48.059Z,0
2018-07-12T00:30:28.446Z,0
2018-07-12T00:31:08.889Z,0
2018-07-12T00:31:49.253Z,0
2018-07-12T00:32:30.051Z,0
2018-07-12T00:33:10.456Z,0
2018-07-12T00:33:50.847Z,0
2018-07-12T00:34:31.310Z,0
2018-07-12T00:35:11.796Z,0
2018-07-12T00:35:52.276Z,0
2018-07-12T00:36:32.586Z,0
2018-07-12T00:37:13.018Z,0
2018-07-12T00:37:53.677Z,0
2018-07-12T00:38:34.000Z,0
2018-07-12T00:39:14.463Z,0
2018-07-12T00:39:54.818Z,0
2018-07-12T00:40:35.365Z,0
2018-07-12T00:41:16.539Z,0
2018-07-12T00:41:56.275Z,0
2018-07-12T00:42:36.625Z,0
2018-07-12T00:43:17.025Z,0
2018-07-12T00:43:57.550Z,0
2018-07-12T00:44:38.078Z,0
2018-07-12T00:45:18.460Z,0
2018-07-12T00:45:58.831Z,0
2018-07-12T00:46:39.194Z,0
2018-07-12T00:47:19.659Z,0
2018-07-12T00:48:00.084Z,0
2018-07-12T00:48:40.694Z,0
2018-07-12T00:49:21.146Z,0
2018-07-12T00:50:01.528Z,0
2018-07-12T00:50:41.946Z,0
2018-07-12T00:51:22.732Z,0
2018-07-12T00:52:03.142Z,0
2018-07-12T00:52:43.535Z,0
2018-07-12T00:53:24.020Z,0
2018-07-12T00:54:04.386Z,0
2018-07-12T00:54:44.797Z,0
2018-07-12T00:55:25.235Z,0
2018-07-12T00:56:05.777Z,0
2018-07-12T00:56:46.225Z,0
2018-07-12T00:57:26.699Z,0
2018-07-12T00:58:07.022Z,0
2018-07-12T00:58:47.450Z,0
2018-07-12T00:59:27.849Z,0
2018-07-12T01:00:08.301Z,0
2018-07-12T01:00:48.742Z,0
2018-07-12T01:01:29.169Z,0
2018-07-12T01:02:09.520Z,0
2018-07-12T01:02:49.973Z,0
2018-07-12T01:03:30.409Z,0
2018-07-12T01:04:10.742Z,0
2018-07-12T01:04:51.152Z,0
2018-07-12T01:05:31.568Z,0
2018-07-12T01:06:11.915Z,0
2018-07-12T01:06:52.362Z,0
2018-07-12T01:07:32.829Z,0
2018-07-12T01:08:13.278Z,0
2018-07-12T01:08:53.666Z,0
2018-07-12T01:09:34.081Z,0
2018-07-12T01:10:14.469Z,0
2018-07-12T01:10:54.875Z,0
2018-07-12T01:11:35.339Z,0
2018-07-12T01:12:15.792Z,0
2018-07-12T01:12:56.115Z,0
2018-07-12T01:13:36.569Z,0
2018-07-12T01:14:17.028Z,0
2018-07-12T01:14:57.447Z,0
2018-07-12T01:15:37.906Z,0
2018-07-12T01:16:18.286Z,0
2018-07-12T01:16:58.836Z,0
2018-07-12T01:17:39.290Z,0
2018-07-12T01:18:19.648Z,0
2018-07-12T01:19:00.215Z,0
2018-07-12T01:19:40.676Z,0
2018-07-12T01:20:21.059Z,0
2018-07-12T01:21:01.471Z,0
2018-07-12T01:21:41.824Z,0
2018-07-12T01:22:22.310Z,0
2018-07-12T01:23:02.703Z,0
2018-07-12T01:23:43.176Z,0
2018-07-12T01:24:23.595Z,0
2018-07-12T01:25:04.053Z,0
2018-07-12T01:25:44.427Z,0
2018-07-12T01:26:24.869Z,0
2018-07-12T01:27:05.251Z,0
2018-07-12T01:27:45.758Z,0
2018-07-12T01:28:26.146Z,0
2018-07-12T01:29:06.564Z,0
2018-07-12T01:29:47.117Z,0
2018-07-12T01:30:27.563Z,0
2018-07-12T01:31:07.945Z,0
2018-07-12T01:31:48.275Z,0
2018-07-12T01:32:28.687Z,0
2018-07-12T01:33:09.046Z,0
2018-07-12T01:33:49.448Z,0
2018-07-12T01:36:08.064Z,0
2018-07-12T01:36:48.134Z,0
2018-07-12T01:37:28.682Z,0
2018-07-12T01:38:08.878Z,0
2018-07-12T01:38:49.373Z,0
2018-07-12T01:39:29.695Z,0
2018-07-12T01:40:10.144Z,0
2018-07-12T01:40:50.566Z,0
2018-07-12T01:41:30.956Z,0
2018-07-12T01:42:11.435Z,0
2018-07-12T01:42:51.798Z,0
2018-07-12T01:43:32.169Z,0
2018-07-12T01:44:12.545Z,0
2018-07-12T01:44:52.938Z,0
2018-07-12T01:45:33.347Z,0
2018-07-12T01:46:13.854Z,0
2018-07-12T01:46:54.218Z,0
2018-07-12T01:47:34.581Z,0
2018-07-12T01:48:15.594Z,0
2018-07-12T01:48:55.736Z,0
2018-07-12T01:49:36.141Z,0
2018-07-12T01:50:16.537Z,0
2018-07-12T01:50:56.933Z,0
2018-07-12T01:51:37.399Z,0
2018-07-12T01:52:17.776Z,0
2018-07-12T01:52:58.171Z,0
2018-07-12T01:53:38.721Z,0
2018-07-12T01:54:19.032Z,0
2018-07-12T01:54:59.686Z,0
2018-07-12T01:55:39.821Z,0
2018-07-12T01:56:20.291Z,0
2018-07-12T01:57:00.692Z,0
2018-07-12T01:57:41.263Z,0
2018-07-12T01:58:21.811Z,0
2018-07-12T01:59:02.296Z,0
2018-07-12T01:59:42.702Z,0
2018-07-12T02:00:23.117Z,0
2018-07-12T02:01:03.565Z,0
2018-07-12T02:01:44.144Z,0
2018-07-12T02:02:24.919Z,0
2018-07-12T02:03:04.969Z,0
2018-07-12T02:03:45.341Z,0
2018-07-12T02:04:25.829Z,0
2018-07-12T02:05:06.152Z,0
2018-07-12T02:05:46.559Z,0
2018-07-12T02:06:27.019Z,0
2018-07-12T02:07:07.443Z,0
2018-07-12T02:07:47.765Z,0
2018-07-12T02:08:28.252Z,0
2018-07-12T02:09:08.731Z,0
2018-07-12T02:09:49.011Z,0
2018-07-12T02:10:29.478Z,0
2018-07-12T02:11:09.863Z,0
2018-07-12T02:11:50.228Z,0
2018-07-12T02:12:30.700Z,0
2018-07-12T02:13:11.321Z,0
2018-07-12T02:13:51.653Z,0
2018-07-12T02:14:32.087Z,0
2018-07-12T02:15:12.489Z,0
2018-07-12T02:15:52.870Z,0
2018-07-12T02:16:33.273Z,0
2018-07-12T02:17:13.768Z,0
2018-07-12T02:17:54.224Z,0
2018-07-12T02:18:34.550Z,0
2018-07-12T02:19:15.013Z,0
2018-07-12T02:19:55.425Z,0
2018-07-12T02:20:35.848Z,0
2018-07-12T02:21:16.209Z,0
2018-07-12T02:21:56.626Z,0
2018-07-12T02:22:37.151Z,0
2018-07-12T02:23:17.446Z,0
2018-07-12T02:23:57.927Z,0
2018-07-12T02:24:38.334Z,0
2018-07-12T02:25:18.698Z,0
2018-07-12T02:25:59.275Z,0
2018-07-12T02:26:39.633Z,0
2018-07-12T02:27:20.047Z,0
2018-07-12T02:28:00.517Z,0
2018-07-12T02:28:40.866Z,0
2018-07-12T02:29:21.292Z,0
2018-07-12T02:30:01.660Z,0
2018-07-12T02:30:42.239Z,0
2018-07-12T02:31:22.527Z,0
2018-07-12T02:32:03.190Z,0
2018-07-12T02:32:43.514Z,0
2018-07-12T02:33:23.833Z,0
2018-07-12T02:34:05.036Z,0
2018-07-12T02:36:19.395Z,0
2018-07-12T02:36:59.924Z,0
2018-07-12T02:37:40.347Z,0
2018-07-12T02:38:20.835Z,0
2018-07-12T02:39:01.179Z,0
2018-07-12T02:39:41.664Z,0
2018-07-12T02:40:22.059Z,0
2018-07-12T02:41:02.516Z,0
2018-07-12T02:41:42.864Z,0
2018-07-12T02:42:23.324Z,0
2018-07-12T02:43:03.713Z,0
2018-07-12T02:43:44.095Z,0
2018-07-12T02:44:24.581Z,0
2018-07-12T02:45:05.011Z,0
2018-07-12T02:45:45.397Z,0
2018-07-12T02:46:25.780Z,0
2018-07-12T02:47:06.192Z,0
2018-07-12T02:47:46.675Z,0
2018-07-12T02:48:27.106Z,0
2018-07-12T02:49:07.532Z,0
2018-07-12T02:49:47.891Z,0
2018-07-12T02:50:28.277Z,0
2018-07-12T02:51:08.762Z,0
2018-07-12T02:51:49.131Z,0
2018-07-12T02:52:29.504Z,0
2018-07-12T02:53:09.985Z,0
2018-07-12T02:53:50.280Z,0
2018-07-12T02:54:30.873Z,0
2018-07-12T02:55:11.131Z,0
2018-07-12T02:55:51.575Z,0
2018-07-12T02:56:31.973Z,0
2018-07-12T02:57:12.336Z,0
2018-07-12T02:57:52.724Z,0
2018-07-12T02:58:33.184Z,0
2018-07-12T02:59:13.550Z,0
2018-07-12T02:59:53.921Z,0
2018-07-12T03:00:34.371Z,0
2018-07-12T03:01:14.781Z,0
2018-07-12T03:01:55.171Z,0
2018-07-12T03:02:35.605Z,0
2018-07-12T03:03:16.024Z,0
2018-07-12T03:03:56.449Z,0
2018-07-12T03:04:36.740Z,0
2018-07-12T03:05:17.217Z,0
2018-07-12T03:05:57.577Z,0
2018-07-12T03:06:38.033Z,0
2018-07-12T03:07:18.443Z,0
2018-07-12T03:07:58.907Z,0
2018-07-12T03:08:39.339Z,0
2018-07-12T03:09:19.815Z,0
2018-07-12T03:10:00.144Z,0
2018-07-12T03:10:40.679Z,0
2018-07-12T03:11:20.991Z,0
2018-07-12T03:12:01.347Z,0
2018-07-12T03:12:41.673Z,0
2018-07-12T03:13:22.174Z,0
2018-07-12T03:14:02.781Z,0
2018-07-12T03:14:42.951Z,0
2018-07-12T03:15:23.360Z,0
2018-07-12T03:16:03.810Z,0
2018-07-12T03:16:44.190Z,0
2018-07-12T03:17:24.615Z,0
2018-07-12T03:18:05.012Z,0
2018-07-12T03:18:45.379Z,0
2018-07-12T03:19:25.834Z,0
2018-07-12T03:20:06.277Z,0
2018-07-12T03:20:46.670Z,0
2018-07-12T03:21:27.008Z,0
2018-07-12T03:22:07.405Z,0
2018-07-12T03:22:47.843Z,0
2018-07-12T03:23:28.163Z,0
2018-07-12T03:24:08.652Z,0
2018-07-12T03:24:49.011Z,0
2018-07-12T03:25:29.555Z,0
2018-07-12T03:26:09.938Z,0
2018-07-12T03:26:50.380Z,0
2018-07-12T03:27:30.749Z,0
2018-07-12T03:28:11.210Z,0
2018-07-12T03:28:51.566Z,0
2018-07-12T03:32:30.162Z,0
2018-07-12T03:33:10.017Z,0
2018-07-12T03:33:51.107Z,0
2018-07-12T03:34:31.529Z,0
2018-07-12T03:35:11.988Z,0
2018-07-12T03:35:52.301Z,0
2018-07-12T03:36:32.727Z,0
2018-07-12T03:37:13.120Z,0
2018-07-12T03:37:53.617Z,0
2018-07-12T03:38:33.907Z,0
2018-07-12T03:39:14.453Z,0
2018-07-12T03:39:54.942Z,0
2018-07-12T03:40:35.414Z,0
2018-07-12T03:41:15.709Z,0
2018-07-12T03:41:56.884Z,0
2018-07-12T03:42:37.013Z,0
2018-07-12T03:43:17.490Z,0
2018-07-12T03:43:57.993Z,0
2018-07-12T03:44:38.988Z,0
2018-07-12T03:45:18.972Z,0
2018-07-12T03:45:59.436Z,0
2018-07-12T03:46:39.845Z,0
2018-07-12T03:47:20.358Z,0
2018-07-12T03:48:02.263Z,0
2018-07-12T03:48:42.827Z,0
2018-07-12T03:49:23.068Z,5
2018-07-12T03:50:03.481Z,5
2018-07-12T03:50:44.379Z,5
2018-07-12T03:51:24.885Z,5
2018-07-12T03:52:05.261Z,5
2018-07-12T03:52:45.632Z,5
2018-07-12T03:53:26.058Z,5
2018-07-12T03:54:06.516Z,5
2018-07-12T03:54:46.976Z,5
2018-07-12T03:55:27.335Z,5
2018-07-12T03:56:08.306Z,5
2018-07-12T03:56:48.518Z,5
2018-07-12T03:57:28.915Z,5
2018-07-12T03:58:09.519Z,5
2018-07-12T03:58:49.835Z,5
2018-07-12T03:59:30.203Z,5
2018-07-12T04:00:10.999Z,10
2018-07-12T04:00:51.211Z,10
2018-07-12T04:01:34.332Z,10
2018-07-12T04:02:14.677Z,10
2018-07-12T04:02:55.141Z,10
2018-07-12T04:03:35.595Z,10
2018-07-12T04:04:16.077Z,10
2018-07-12T04:42:44.768Z,50
2018-07-12T04:43:25.184Z,50
2018-07-12T04:45:55.796Z,55
2018-07-12T04:46:36.229Z,55
2018-07-12T04:47:16.599Z,55
2018-07-12T04:47:57.050Z,55
2018-07-12T04:48:37.420Z,55
2018-07-12T04:49:17.798Z,55
2018-07-12T04:49:58.290Z,60
2018-07-12T04:50:38.635Z,60
2018-07-12T04:51:19.095Z,60
2018-07-12T04:51:59.466Z,60
2018-07-12T04:52:39.878Z,60
2018-07-12T04:53:20.287Z,60
2018-07-12T04:54:00.716Z,65
2018-07-12T04:54:41.093Z,60
2018-07-12T04:55:21.508Z,65
2018-07-12T04:56:01.942Z,70
2018-07-12T04:56:42.353Z,70
2018-07-12T04:57:22.749Z,70
2018-07-12T04:58:03.228Z,65
2018-07-12T04:58:43.574Z,75
2018-07-12T04:59:23.922Z,75
2018-07-12T05:00:04.361Z,75
2018-07-12T05:00:44.768Z,75
2018-07-12T05:01:25.118Z,75
2018-07-12T05:02:05.527Z,75
2018-07-12T05:02:45.940Z,70
2018-07-12T05:03:26.350Z,65
2018-07-12T05:04:06.802Z,75
2018-07-12T05:04:47.244Z,80
2018-07-12T05:05:27.663Z,75
2018-07-12T05:06:08.062Z,75
2018-07-12T05:06:48.462Z,85
2018-07-12T05:07:28.840Z,100
2018-07-12T05:09:56.982Z,110
2018-07-12T05:10:37.381Z,105
2018-07-12T05:11:17.814Z,100
2018-07-12T05:12:15.625Z,105
2018-07-12T05:12:56.017Z,85
2018-07-12T05:13:36.428Z,65
2018-07-12T05:14:16.783Z,75
2018-07-12T05:14:57.232Z,60
2018-07-12T05:15:37.600Z,60
2018-07-12T05:16:18.030Z,55
2018-07-12T05:16:58.428Z,55
2018-07-12T05:17:38.874Z,60
2018-07-12T05:18:19.318Z,60
2018-07-12T05:18:59.684Z,60
2018-07-12T05:19:40.155Z,65
2018-07-12T05:20:20.641Z,60
2018-07-12T05:21:01.054Z,65
2018-07-12T05:21:41.418Z,75
2018-07-12T05:22:21.832Z,75
2018-07-12T05:23:02.277Z,95
2018-07-12T05:23:42.693Z,115
2018-07-12T05:24:22.990Z,120
2018-07-12T05:25:03.420Z,125
2018-07-12T05:25:43.777Z,130
2018-07-12T05:26:24.267Z,135
2018-07-12T05:27:04.646Z,135
2018-07-12T05:27:45.104Z,140
2018-07-12T05:28:25.454Z,135
2018-07-12T05:29:05.876Z,140
2018-07-12T05:29:46.312Z,140
2018-07-12T05:30:26.731Z,135
2018-07-12T05:31:07.112Z,130
2018-07-12T05:31:47.529Z,130
2018-07-12T05:32:27.924Z,135
2018-07-12T05:33:08.341Z,135
2018-07-12T05:33:48.790Z,135
2018-07-12T05:34:29.170Z,85
2018-07-12T05:35:09.548Z,75
2018-07-12T05:35:49.953Z,50
2018-07-12T05:36:30.357Z,45
2018-07-12T05:37:10.783Z,45
2018-07-12T05:37:51.253Z,45
2018-07-12T05:38:31.653Z,45
2018-07-12T05:39:12.205Z,35
2018-07-12T05:39:52.491Z,35
2018-07-12T05:40:32.970Z,35
2018-07-12T05:41:13.344Z,30
2018-07-12T05:41:53.765Z,30
2018-07-12T05:42:34.177Z,30
2018-07-12T05:43:14.611Z,30
2018-07-12T05:43:55.026Z,30
2018-07-12T05:44:35.391Z,25
2018-07-12T05:45:16.014Z,20
2018-07-12T05:45:56.397Z,25
2018-07-12T05:46:36.929Z,25
2018-07-12T05:47:17.288Z,25
2018-07-12T05:47:57.757Z,25
2018-07-12T05:48:38.115Z,25
2018-07-12T05:49:18.570Z,20
2018-07-12T05:49:58.976Z,20
2018-07-12T05:50:39.421Z,15
2018-07-12T05:51:19.929Z,15
2018-07-12T05:52:00.403Z,20
2018-07-12T05:52:40.720Z,20
2018-07-12T05:53:21.161Z,20
2018-07-12T05:54:01.634Z,20
2018-07-12T05:54:42.049Z,15
2018-07-12T05:55:22.514Z,15
2018-07-12T05:56:02.880Z,15
2018-07-12T05:56:43.472Z,15
2018-07-12T05:57:23.880Z,15
2018-07-12T05:58:04.336Z,15
2018-07-12T06:02:10.870Z,20
2018-07-12T06:02:51.277Z,20
2018-07-12T06:03:35.774Z,20
2018-07-12T06:04:16.302Z,20
2018-07-12T06:04:56.957Z,20
2018-07-12T06:05:39.216Z,20
2018-07-12T06:06:19.739Z,20
2018-07-12T06:07:01.133Z,25
2018-07-12T06:07:41.714Z,25
2018-07-12T06:08:23.137Z,25
2018-07-12T06:09:03.690Z,25
2018-07-12T06:09:45.179Z,25
2018-07-12T06:10:26.086Z,30
2018-07-12T06:11:06.896Z,30
2018-07-12T06:11:47.912Z,30
2018-07-12T06:12:28.869Z,30
2018-07-12T06:13:09.933Z,30
2018-07-12T06:13:50.831Z,25
2018-07-12T06:14:31.474Z,25
2018-07-12T06:15:12.140Z,25
2018-07-12T06:15:52.895Z,25
2018-07-12T06:16:34.518Z,35
2018-07-12T06:17:15.549Z,35
2018-07-12T06:17:56.393Z,35
2018-07-12T06:18:36.929Z,30
2018-07-12T06:19:17.360Z,25
2018-07-12T06:19:59.568Z,25
2018-07-12T06:20:40.351Z,25
2018-07-12T06:21:20.873Z,25
2018-07-12T06:22:02.088Z,25
2018-07-12T06:22:42.371Z,30
2018-07-12T06:23:22.852Z,40
2018-07-12T06:24:03.524Z,40
2018-07-12T06:24:47.387Z,370
2018-07-12T06:25:28.255Z,55
2018-07-12T06:26:08.824Z,45
2018-07-12T06:26:49.948Z,55
2018-07-12T06:27:30.800Z,120
2018-07-12T06:28:12.759Z,45
2018-07-12T06:28:53.249Z,45
2018-07-12T06:29:33.736Z,45
2018-07-12T06:30:14.734Z,55
2018-07-12T06:30:55.504Z,50
2018-07-12T06:31:36.276Z,45
2018-07-12T06:32:19.485Z,45
2018-07-12T06:32:59.983Z,45
2018-07-12T06:35:15.030Z,90
2018-07-12T06:35:55.421Z,280
2018-07-12T06:36:35.834Z,125
2018-07-12T06:37:16.381Z,125
2018-07-12T06:37:56.723Z,165
2018-07-12T06:38:37.210Z,190
2018-07-12T06:39:17.581Z,165
2018-07-12T06:39:58.210Z,175
2018-07-12T06:40:54.004Z,90
2018-07-12T06:41:33.667Z,90
2018-07-12T06:42:14.478Z,85
2018-07-12T06:42:54.762Z,130
2018-07-12T06:43:35.169Z,110
2018-07-12T06:44:15.624Z,85
2018-07-12T06:44:56.822Z,85
2018-07-12T06:45:37.249Z,100
2018-07-12T06:46:17.890Z,155
2018-07-12T06:46:58.403Z,855
2018-07-12T06:47:40.253Z,145
2018-07-12T06:48:20.787Z,185
2018-07-12T06:49:01.526Z,125
2018-07-12T06:49:41.958Z,105
2018-07-12T06:50:22.457Z,95
2018-07-12T06:51:02.961Z,85
2018-07-12T06:51:43.482Z,75
2018-07-12T06:52:25.128Z,70
2018-07-12T06:53:04.972Z,70
2018-07-12T06:53:45.471Z,75
2018-07-12T06:54:26.285Z,70
2018-07-12T06:55:07.119Z,70
2018-07-12T06:55:47.528Z,75
2018-07-12T06:56:28.120Z,80
2018-07-12T06:57:08.756Z,80
2018-07-12T06:57:49.353Z,90
2018-07-12T07:00:02.694Z,130
2018-07-12T07:00:43.106Z,100
2018-07-12T07:01:23.639Z,90
2018-07-12T07:02:04.025Z,95
2018-07-12T07:02:44.486Z,95
2018-07-12T07:03:25.024Z,100
2018-07-12T07:04:05.461Z,100
2018-07-12T07:04:45.881Z,105
2018-07-12T07:05:26.314Z,120
2018-07-12T07:06:06.777Z,470
2018-07-12T07:06:47.212Z,515
2018-07-12T07:07:27.604Z,330
2018-07-12T07:08:08.042Z,385
2018-07-12T07:08:48.483Z,195
2018-07-12T07:09:29.817Z,270
2018-07-12T07:10:10.404Z,195
2018-07-12T07:10:50.879Z,140
2018-07-12T07:11:31.404Z,145
2018-07-12T07:12:11.987Z,145
2018-07-12T07:12:52.404Z,375
2018-07-12T07:13:32.829Z,140
2018-07-12T07:14:13.241Z,130
2018-07-12T07:14:54.707Z,120
2018-07-12T07:15:35.316Z,110
2018-07-12T07:16:15.824Z,100
2018-07-12T07:16:56.262Z,100
2018-07-12T07:17:36.798Z,95
2018-07-12T07:18:17.406Z,90
2018-07-12T07:18:57.843Z,85
2018-07-12T07:19:38.330Z,85
2018-07-12T07:20:18.854Z,75
2018-07-12T07:20:59.317Z,70
2018-07-12T07:21:39.681Z,65
2018-07-12T07:22:21.085Z,60
2018-07-12T07:23:01.606Z,60
2018-07-12T07:23:42.062Z,65
2018-07-12T07:24:22.533Z,80
2018-07-12T07:25:03.055Z,105
2018-07-12T07:25:43.543Z,85
2018-07-12T07:26:23.845Z,65
2018-07-12T07:27:04.286Z,60
2018-07-12T07:27:44.655Z,90
2018-07-12T07:28:25.101Z,90
2018-07-12T07:29:05.505Z,90
2018-07-12T07:29:46.694Z,250
2018-07-12T07:30:27.836Z,190
2018-07-12T07:31:07.857Z,300
2018-07-12T07:31:48.236Z,65
2018-07-12T07:32:28.868Z,60
2018-07-12T07:33:09.224Z,55
2018-07-12T07:33:49.648Z,60
2018-07-12T07:34:30.266Z,65
2018-07-12T07:35:11.114Z,95
2018-07-12T07:35:51.789Z,80
2018-07-12T07:36:32.295Z,90
2018-07-12T07:37:12.773Z,60
2018-07-12T07:37:53.242Z,55
2018-07-12T07:38:33.666Z,60
2018-07-12T07:39:14.056Z,65
2018-07-12T07:39:54.514Z,70
2018-07-12T07:40:35.017Z,70
2018-07-12T07:41:15.637Z,75
2018-07-12T07:41:56.138Z,85
2018-07-12T07:42:36.511Z,90
2018-07-12T07:43:17.023Z,85
2018-07-12T07:43:57.345Z,90
2018-07-12T07:44:38.335Z,80
2018-07-12T07:45:28.727Z,85
2018-07-12T07:46:09.184Z,65
2018-07-12T07:46:49.591Z,60
2018-07-12T07:47:29.989Z,70
2018-07-12T07:48:10.567Z,75
2018-07-12T07:48:50.840Z,75
2018-07-12T07:49:31.343Z,75
2018-07-12T07:50:11.800Z,70
2018-07-12T07:50:52.174Z,75
2018-07-12T07:51:32.698Z,85
2018-07-12T07:52:13.046Z,85
2018-07-12T07:52:53.472Z,85
2018-07-12T07:53:34.038Z,90
2018-07-12T07:54:14.326Z,90
2018-07-12T07:54:54.756Z,105
2018-07-12T07:55:35.157Z,120
2018-07-12T07:56:15.578Z,160
2018-07-12T07:56:56.875Z,165
2018-07-12T07:57:36.738Z,160
2018-07-12T07:58:17.209Z,170
2018-07-12T07:58:57.729Z,155
2018-07-12T07:59:38.236Z,145
2018-07-12T08:00:18.797Z,135
2018-07-12T08:00:59.447Z,120
2018-07-12T08:01:39.912Z,110
2018-07-12T08:02:20.288Z,105
2018-07-12T08:03:00.747Z,105
2018-07-12T08:03:41.266Z,110
2018-07-12T08:04:21.639Z,115
2018-07-12T08:05:02.056Z,120
2018-07-12T08:05:42.510Z,135
2018-07-12T08:06:22.963Z,140
2018-07-12T08:07:04.078Z,130
2018-07-12T08:07:43.882Z,115
2018-07-12T08:08:24.303Z,100
2018-07-12T08:09:05.676Z,95
2018-07-12T08:09:49.428Z,90
2018-07-12T08:10:29.856Z,80
2018-07-12T08:11:10.245Z,85
2018-07-12T08:11:50.735Z,90
2018-07-12T08:12:31.115Z,90
2018-07-12T08:13:11.549Z,100
2018-07-12T08:13:51.948Z,115
2018-07-12T08:14:32.339Z,125
2018-07-12T08:15:12.818Z,140
2018-07-12T08:15:53.225Z,120
2018-07-12T08:16:33.649Z,105
2018-07-12T08:17:14.042Z,105
2018-07-12T08:17:55.368Z,120
2018-07-12T08:18:36.365Z,120
2018-07-12T08:19:16.782Z,120
2018-07-12T08:19:56.968Z,120
2018-07-12T08:20:51.966Z,105
2018-07-12T08:21:32.375Z,100
2018-07-12T08:22:13.614Z,100
2018-07-12T08:22:53.540Z,105
2018-07-12T08:23:34.889Z,105
2018-07-12T08:24:15.247Z,110
2018-07-12T08:24:55.942Z,115
2018-07-12T08:25:37.016Z,145
2018-07-12T08:26:17.780Z,135
2018-07-12T08:26:58.079Z,115
2018-07-12T08:27:38.763Z,115
2018-07-12T08:28:19.302Z,100
2018-07-12T08:28:59.825Z,90
2018-07-12T08:29:40.227Z,90
2018-07-12T08:30:20.752Z,85
2018-07-12T08:31:01.107Z,75
2018-07-12T08:31:41.525Z,70
2018-07-12T08:32:22.007Z,70
2018-07-12T08:33:02.444Z,75
2018-07-12T08:33:42.908Z,105
2018-07-12T08:34:23.280Z,110
2018-07-12T08:35:03.720Z,115
2018-07-12T08:35:44.082Z,100
2018-07-12T08:36:24.534Z,105
2018-07-12T08:37:06.006Z,105
2018-07-12T08:37:46.403Z,105
2018-07-12T08:38:26.797Z,110
2018-07-12T08:39:07.239Z,110
2018-07-12T08:39:48.240Z,110
2018-07-12T08:40:29.917Z,130
2018-07-12T08:41:10.359Z,145
2018-07-12T08:41:50.159Z,150
2018-07-12T08:42:30.695Z,155
2018-07-12T08:43:11.043Z,155
2018-07-12T08:43:51.469Z,150
2018-07-12T08:44:31.976Z,145
2018-07-12T08:45:12.392Z,145
2018-07-12T08:45:52.838Z,145
2018-07-12T08:46:33.304Z,130
2018-07-12T08:47:13.775Z,135
2018-07-12T08:47:54.432Z,135
2018-07-12T08:48:34.872Z,125
2018-07-12T08:49:15.274Z,110
2018-07-12T08:49:55.698Z,110
2018-07-12T08:52:51.169Z,105
2018-07-12T08:53:32.332Z,105
2018-07-12T08:54:12.757Z,110
2018-07-12T08:54:53.152Z,110
2018-07-12T08:55:33.577Z,110
2018-07-12T08:56:14.025Z,115
2018-07-12T08:56:54.474Z,110
2018-07-12T08:57:34.872Z,100
2018-07-12T08:58:15.325Z,100
2018-07-12T08:58:55.770Z,110
2018-07-12T08:59:36.474Z,110
2018-07-12T09:00:16.934Z,100
2018-07-12T09:00:57.403Z,95
2018-07-12T09:01:37.821Z,90
2018-07-12T09:02:18.318Z,95
2018-07-12T09:02:58.775Z,95
2018-07-12T09:03:39.176Z,105
2018-07-12T09:04:19.721Z,110
2018-07-12T09:05:00.214Z,115
2018-07-12T09:05:40.584Z,95
2018-07-12T09:06:20.962Z,85
2018-07-12T09:07:01.514Z,75
2018-07-12T09:07:41.994Z,65
2018-07-12T09:08:22.417Z,60
2018-07-12T09:09:02.936Z,60
2018-07-12T09:09:43.389Z,60
2018-07-12T09:10:24.203Z,65
2018-07-12T09:11:04.571Z,65
2018-07-12T09:11:45.084Z,65
2018-07-12T09:12:25.503Z,65
2018-07-12T09:13:05.951Z,70
2018-07-12T09:13:46.486Z,70
2018-07-12T09:14:26.918Z,70
2018-07-12T09:15:07.314Z,70
2018-07-12T09:15:47.819Z,70
2018-07-12T09:16:28.125Z,75
2018-07-12T09:17:08.578Z,75
2018-07-12T09:17:48.984Z,80
2018-07-12T09:18:29.459Z,85
2018-07-12T09:19:09.958Z,85
2018-07-12T09:19:50.423Z,85
2018-07-12T09:20:30.878Z,80
2018-07-12T09:21:11.293Z,80
2018-07-12T09:21:51.728Z,70
2018-07-12T09:22:32.374Z,70
2018-07-12T09:23:12.733Z,65
2018-07-12T09:23:53.197Z,60
2018-07-12T09:24:33.598Z,60
2018-07-12T09:25:14.744Z,60
2018-07-12T09:25:54.897Z,60
2018-07-12T09:26:35.350Z,65
2018-07-12T09:27:15.995Z,70
2018-07-12T09:27:56.524Z,80
2018-07-12T09:28:37.164Z,85
2018-07-12T09:31:16.963Z,80
2018-07-12T09:31:57.542Z,85
2018-07-12T09:32:37.946Z,90
2018-07-12T09:33:18.390Z,90
2018-07-12T09:33:58.879Z,90
2018-07-12T09:36:16.891Z,75
2018-07-12T09:37:18.815Z,75
2018-07-12T09:38:11.852Z,75
2018-07-12T09:42:22.742Z,75
2018-07-12T09:43:03.248Z,70
2018-07-12T09:43:43.611Z,65
2018-07-12T09:44:24.071Z,60
2018-07-12T09:45:05.012Z,55
2018-07-12T09:45:45.108Z,55
2018-07-12T09:46:25.574Z,55
2018-07-12T09:47:07.024Z,55
2018-07-12T09:47:48.235Z,55
2018-07-12T09:48:28.183Z,55
2018-07-12T09:49:08.716Z,55
2018-07-12T09:49:49.416Z,60
2018-07-12T09:50:31.633Z,55
2018-07-12T09:51:10.851Z,60
2018-07-12T09:51:51.233Z,60
2018-07-12T09:52:31.711Z,70
2018-07-12T09:53:12.071Z,80
2018-07-12T09:53:52.636Z,80
2018-07-12T09:54:33.167Z,90
2018-07-12T09:55:13.574Z,105
2018-07-12T09:55:54.084Z,100
2018-07-12T09:56:34.466Z,100
2018-07-12T09:57:14.867Z,80
2018-07-12T09:57:55.278Z,95
2018-07-12T09:58:35.748Z,100
2018-07-12T09:59:16.176Z,95
2018-07-12T09:59:56.773Z,95
2018-07-12T10:00:37.198Z,90
2018-07-12T10:01:18.182Z,85
2018-07-12T10:01:58.895Z,85
2018-07-12T10:02:39.366Z,80
2018-07-12T10:03:19.993Z,95
2018-07-12T10:04:01.625Z,95
2018-07-12T10:45:16.324Z,70
2018-07-12T10:45:56.825Z,55
2018-07-12T10:46:37.269Z,50
2018-07-12T10:47:17.792Z,50
2018-07-12T10:47:58.419Z,45
2018-07-12T10:48:38.640Z,45
2018-07-12T10:49:19.321Z,45
2018-07-12T10:49:59.838Z,45
2018-07-12T10:50:41.092Z,45
2018-07-12T10:51:21.054Z,45
2018-07-12T10:52:01.743Z,40
2018-07-12T10:52:42.325Z,40
2018-07-12T10:53:22.684Z,40
2018-07-12T10:54:03.233Z,45
2018-07-12T10:54:43.693Z,45
2018-07-12T10:55:24.166Z,50
2018-07-12T10:56:04.603Z,50
2018-07-12T10:56:47.786Z,50
2018-07-12T10:57:28.215Z,50
2018-07-12T10:58:08.744Z,55
2018-07-12T10:58:49.100Z,60
2018-07-12T10:59:29.441Z,65
2018-07-12T11:00:09.956Z,70
2018-07-12T11:00:50.797Z,80
2018-07-12T11:01:31.471Z,70
2018-07-12T11:02:12.018Z,70
2018-07-12T11:02:52.479Z,70
2018-07-12T11:03:32.932Z,70
2018-07-12T11:04:13.293Z,65
2018-07-12T11:04:53.727Z,65
2018-07-12T11:05:34.225Z,65
2018-07-12T11:06:14.696Z,60
2018-07-12T11:06:55.152Z,60
2018-07-12T11:07:35.927Z,55
2018-07-12T11:08:16.442Z,55
2018-07-12T11:08:57.706Z,50
2018-07-12T11:09:37.568Z,50
2018-07-12T11:12:18.151Z,45
2018-07-12T11:12:58.866Z,45
2018-07-12T11:13:41.235Z,45
2018-07-12T11:14:36.637Z,45
2018-07-12T11:15:17.091Z,45
2018-07-12T11:16:15.166Z,45
2018-07-12T11:16:55.659Z,45
2018-07-12T11:17:36.239Z,50
2018-07-12T11:18:17.292Z,50
2018-07-12T11:19:04.454Z,55
2018-07-12T11:19:44.809Z,55
2018-07-12T11:20:25.264Z,60
2018-07-12T11:21:05.740Z,65
2018-07-12T11:21:47.049Z,75
2018-07-12T11:22:26.836Z,85
2018-07-12T11:23:07.200Z,85
2018-07-12T11:23:47.834Z,85
2018-07-12T11:24:28.318Z,95
2018-07-12T11:25:08.745Z,90
2018-07-12T11:25:49.157Z,95
2018-07-12T11:26:29.626Z,90
2018-07-12T11:27:10.053Z,95
2018-07-12T11:27:50.583Z,95
2018-07-12T11:28:31.643Z,95
2018-07-12T11:29:12.300Z,95
2018-07-12T11:29:52.965Z,85
2018-07-12T11:30:33.455Z,95